Tokyo Downtown, Japan

1:54 AM JST on August 29, 2016 (GMT +0900)
Chūō-ku | | Change Station

Elev 0 ft 35.68 °N, 139.77 °E | Updated 51 seconds ago

Light Rain
Light Rain
73.0 °F
Feels Like 73.0 °F
N
3.1
Wind Variable Wind from North
Gusts 6.8 mph

Today
High -- | Low -- °F
--% Chance of Precip.
Yesterday
High -- | Low -- °F
Precip. -- in
Pressure 29.44 in
Visibility 6.2 miles
Clouds Few 400 ft
Mostly Cloudy 600 ft
Mostly Cloudy 700 ft
Dew Point 71 °F
Humidity 94%
Rainfall 0.00 in
Snow Depth Not available.
5:10 AM 6:12 PM
Waning Crescent, 14% visible
SPECI RJTT 281640Z 02014KT 9999 -RA FEW004 BKN006 BKN007 23/23 Q0997 RMK 1ST004 5ST006 7ST007 A2946
Pressure 29.44 in
Visibility 6.2 miles
Clouds Few 400 ft
Mostly Cloudy 600 ft
Mostly Cloudy 700 ft
Dew Point 71 °F
Humidity 94%
Rainfall 0.00 in
Snow Depth Not available.
5:10 AM 6:12 PM
Waning Crescent, 14% visible
SPECI RJTT 281640Z 02014KT 9999 -RA FEW004 BKN006 BKN007 23/23 Q0997 RMK 1ST004 5ST006 7ST007 A2946

10-Day Weather Forecast

No radar image for this location.
×

Almanac

Astronomy

Aug. 29, 2016 Rise Set
Actual Time
Civil Twilight
Nautical Twilight
Astronomical Twilight
Moon
Length of Visible Light
Length of Day
Tomorrow will be .
, % of the Moon is Illuminated

Today's Extremes

Country Highs Country Lows

Community

WunderPhotos

Upload Photos

1,935,627 photos uploaded!

WunderBlog® & News

Nearby

Air Quality

  Air Quality AQ Index Pollutant
Not available.

Snow Depth

Station Depth Elevation

Earthquake Activity

City Distance Mag. Time & Date
Minimum magnitude displayed is 2.5.

Coastal Water Temperatures

Place Temperature

Stations

Nearby Weather Stations

Station Location Temp. Windchill Dew Point Humidity Wind Precip. Elev Updated Type